sensor_id;sensor_type;location;lat;lon;timestamp;pressure;altitude;pressure_sealevel;temperature;humidity
49044;BME280;34860;48.066;14.124;2023-07-02T00:01:07;95911.88;;;19.86;51.63
49044;BME280;34860;48.066;14.124;2023-07-02T00:03:56;95905.19;;;19.89;51.59
49044;BME280;34860;48.066;14.124;2023-07-02T00:06:49;95909.56;;;19.90;51.51
49044;BME280;34860;48.066;14.124;2023-07-02T00:09:44;95908.25;;;19.91;51.60
49044;BME280;34860;48.066;14.124;2023-07-02T00:12:33;95908.53;;;19.93;51.61
49044;BME280;34860;48.066;14.124;2023-07-02T00:15:22;95915.16;;;19.95;51.41
49044;BME280;34860;48.066;14.124;2023-07-02T00:18:10;95910.03;;;20.00;51.51
49044;BME280;34860;48.066;14.124;2023-07-02T00:21:09;95916.66;;;20.02;51.48
49044;BME280;34860;48.066;14.124;2023-07-02T00:24:03;95913.59;;;20.06;51.43
49044;BME280;34860;48.066;14.124;2023-07-02T00:26:57;95914.06;;;20.10;51.43
49044;BME280;34860;48.066;14.124;2023-07-02T00:29:47;95915.09;;;20.12;51.13
49044;BME280;34860;48.066;14.124;2023-07-02T00:32:36;95914.06;;;20.16;51.13
49044;BME280;34860;48.066;14.124;2023-07-02T00:35:30;95918.16;;;20.20;51.26
49044;BME280;34860;48.066;14.124;2023-07-02T00:38:23;95916.31;;;20.23;51.16
49044;BME280;34860;48.066;14.124;2023-07-02T00:41:17;95916.06;;;20.26;51.13
49044;BME280;34860;48.066;14.124;2023-07-02T00:44:10;95919.88;;;20.29;50.97
49044;BME280;34860;48.066;14.124;2023-07-02T00:46:59;95925.25;;;20.32;51.09
49044;BME280;34860;48.066;14.124;2023-07-02T00:49:47;95917.81;;;20.35;51.04
49044;BME280;34860;48.066;14.124;2023-07-02T00:52:39;95926.00;;;20.39;50.92
49044;BME280;34860;48.066;14.124;2023-07-02T00:55:31;95931.91;;;20.41;50.89
49044;BME280;34860;48.066;14.124;2023-07-02T00:58:22;95923.16;;;20.44;50.99
49044;BME280;34860;48.066;14.124;2023-07-02T01:01:10;95931.09;;;20.46;51.00
49044;BME280;34860;48.066;14.124;2023-07-02T01:04:00;95930.56;;;20.47;50.91
49044;BME280;34860;48.066;14.124;2023-07-02T01:06:49;95937.22;;;20.50;50.79
49044;BME280;34860;48.066;14.124;2023-07-02T01:09:41;95935.19;;;20.50;50.95
49044;BME280;34860;48.066;14.124;2023-07-02T01:12:30;95939.50;;;20.51;50.81
49044;BME280;34860;48.066;14.124;2023-07-02T01:15:22;95949.53;;;20.53;50.83
49044;BME280;34860;48.066;14.124;2023-07-02T01:18:12;95934.38;;;20.50;50.81
49044;BME280;34860;48.066;14.124;2023-07-02T01:21:04;95942.84;;;20.50;50.95
49044;BME280;34860;48.066;14.124;2023-07-02T01:23:53;95953.91;;;20.48;50.85
49044;BME280;34860;48.066;14.124;2023-07-02T01:26:42;95947.75;;;20.49;50.87
49044;BME280;34860;48.066;14.124;2023-07-02T01:29:32;95951.59;;;20.46;50.81
49044;BME280;34860;48.066;14.124;2023-07-02T01:32:23;95957.00;;;20.44;50.85
49044;BME280;34860;48.066;14.124;2023-07-02T01:35:12;95961.91;;;20.44;51.01
49044;BME280;34860;48.066;14.124;2023-07-02T01:38:07;95960.13;;;20.41;50.87
49044;BME280;34860;48.066;14.124;2023-07-02T01:40:59;95975.50;;;20.40;50.90
49044;BME280;34860;48.066;14.124;2023-07-02T01:43:50;95980.13;;;20.37;51.06
49044;BME280;34860;48.066;14.124;2023-07-02T01:46:44;95977.06;;;20.29;51.11
49044;BME280;34860;48.066;14.124;2023-07-02T01:49:35;95979.94;;;20.24;51.15
49044;BME280;34860;48.066;14.124;2023-07-02T01:52:29;95993.28;;;20.18;51.38
49044;BME280;34860;48.066;14.124;2023-07-02T01:55:24;95983.84;;;20.09;51.70
49044;BME280;34860;48.066;14.124;2023-07-02T01:58:16;95992.06;;;20.02;51.73
49044;BME280;34860;48.066;14.124;2023-07-02T02:01:10;95993.38;;;19.95;51.93
49044;BME280;34860;48.066;14.124;2023-07-02T02:03:59;95991.84;;;19.88;52.13
49044;BME280;34860;48.066;14.124;2023-07-02T02:06:48;95991.63;;;19.81;52.21
49044;BME280;34860;48.066;14.124;2023-07-02T02:09:41;95995.44;;;19.72;52.60
49044;BME280;34860;48.066;14.124;2023-07-02T02:12:34;95994.69;;;19.66;52.56
49044;BME280;34860;48.066;14.124;2023-07-02T02:15:33;95998.78;;;19.59;52.71
49044;BME280;34860;48.066;14.124;2023-07-02T02:18:21;95998.00;;;19.53;52.89
49044;BME280;34860;48.066;14.124;2023-07-02T02:21:12;95993.16;;;19.48;53.03
49044;BME280;34860;48.066;14.124;2023-07-02T02:24:01;95997.00;;;19.45;53.09
49044;BME280;34860;48.066;14.124;2023-07-02T02:26:49;95992.91;;;19.40;53.15
49044;BME280;34860;48.066;14.124;2023-07-02T02:29:43;95988.84;;;19.35;53.42
49044;BME280;34860;48.066;14.124;2023-07-02T02:32:39;95994.47;;;19.30;53.61
49044;BME280;34860;48.066;14.124;2023-07-02T02:35:30;96003.69;;;19.24;53.85
49044;BME280;34860;48.066;14.124;2023-07-02T02:38:25;96005.22;;;19.20;53.81
49044;BME280;34860;48.066;14.124;2023-07-02T02:41:16;95999.31;;;19.12;53.94
49044;BME280;34860;48.066;14.124;2023-07-02T02:44:09;96012.88;;;19.08;53.83
49044;BME280;34860;48.066;14.124;2023-07-02T02:47:03;96013.66;;;19.09;54.04
49044;BME280;34860;48.066;14.124;2023-07-02T02:49:56;96001.63;;;19.02;54.09
49044;BME280;34860;48.066;14.124;2023-07-02T02:52:47;96003.41;;;19.00;54.27
49044;BME280;34860;48.066;14.124;2023-07-02T02:55:37;96003.91;;;18.98;54.57
49044;BME280;34860;48.066;14.124;2023-07-02T02:58:33;96010.03;;;18.97;54.59
49044;BME280;34860;48.066;14.124;2023-07-02T03:01:24;96006.47;;;18.96;54.75
49044;BME280;34860;48.066;14.124;2023-07-02T03:04:20;96005.72;;;18.96;54.60
49044;BME280;34860;48.066;14.124;2023-07-02T03:07:15;96006.22;;;18.94;54.59
49044;BME280;34860;48.066;14.124;2023-07-02T03:10:05;96001.09;;;18.93;54.72
49044;BME280;34860;48.066;14.124;2023-07-02T03:12:55;96009.53;;;18.93;54.69
49044;BME280;34860;48.066;14.124;2023-07-02T03:15:48;96007.75;;;18.90;55.06
49044;BME280;34860;48.066;14.124;2023-07-02T03:18:36;96006.19;;;18.88;55.01
49044;BME280;34860;48.066;14.124;2023-07-02T03:21:31;96006.69;;;18.87;55.07
49044;BME280;34860;48.066;14.124;2023-07-02T03:24:22;96005.94;;;18.86;55.25
49044;BME280;34860;48.066;14.124;2023-07-02T03:27:10;96010.53;;;18.84;55.32
49044;BME280;34860;48.066;14.124;2023-07-02T03:30:00;96011.31;;;18.84;55.36
49044;BME280;34860;48.066;14.124;2023-07-02T03:32:50;96007.44;;;18.82;55.46
49044;BME280;34860;48.066;14.124;2023-07-02T03:35:39;96017.94;;;18.81;55.60
49044;BME280;34860;48.066;14.124;2023-07-02T03:38:35;96015.88;;;18.82;55.64
49044;BME280;34860;48.066;14.124;2023-07-02T03:41:24;96015.13;;;18.81;55.54
49044;BME280;34860;48.066;14.124;2023-07-02T03:44:17;96012.31;;;18.81;55.76
49044;BME280;34860;48.066;14.124;2023-07-02T03:47:07;96015.13;;;18.81;55.68
49044;BME280;34860;48.066;14.124;2023-07-02T03:50:00;96015.88;;;18.82;55.80
49044;BME280;34860;48.066;14.124;2023-07-02T03:52:48;96021.50;;;18.82;55.84
49044;BME280;34860;48.066;14.124;2023-07-02T03:55:41;96025.09;;;18.82;55.96
49044;BME280;34860;48.066;14.124;2023-07-02T03:58:31;96036.34;;;18.82;55.74
49044;BME280;34860;48.066;14.124;2023-07-02T04:01:20;96027.91;;;18.82;55.88
49044;BME280;34860;48.066;14.124;2023-07-02T04:04:11;96023.56;;;18.81;56.05
49044;BME280;34860;48.066;14.124;2023-07-02T04:07:00;96036.34;;;18.82;55.94
49044;BME280;34860;48.066;14.124;2023-07-02T04:09:51;96033.53;;;18.82;56.12
49044;BME280;34860;48.066;14.124;2023-07-02T04:12:44;96030.25;;;18.84;56.26
49044;BME280;34860;48.066;14.124;2023-07-02T04:15:33;96036.66;;;18.84;56.10
49044;BME280;34860;48.066;14.124;2023-07-02T04:18:27;96054.56;;;18.87;56.07
49044;BME280;34860;48.066;14.124;2023-07-02T04:21:20;96047.41;;;18.86;56.23
49044;BME280;34860;48.066;14.124;2023-07-02T04:24:09;96051.00;;;18.86;56.17
49044;BME280;34860;48.066;14.124;2023-07-02T04:26:58;96053.81;;;18.86;56.08
49044;BME280;34860;48.066;14.124;2023-07-02T04:29:52;96050.22;;;18.86;56.31
49044;BME280;34860;48.066;14.124;2023-07-02T04:32:41;96066.34;;;18.85;56.06
49044;BME280;34860;48.066;14.124;2023-07-02T04:35:32;96066.34;;;18.85;56.38
49044;BME280;34860;48.066;14.124;2023-07-02T04:38:23;96064.81;;;18.84;56.22
49044;BME280;34860;48.066;14.124;2023-07-02T04:41:17;96067.88;;;18.86;56.35
49044;BME280;34860;48.066;14.124;2023-07-02T04:44:09;96074.78;;;18.85;56.45
49044;BME280;34860;48.066;14.124;2023-07-02T04:47:01;96065.81;;;18.87;56.56
49044;BME280;34860;48.066;14.124;2023-07-02T04:49:50;96071.22;;;18.85;56.37
49044;BME280;34860;48.066;14.124;2023-07-02T04:52:44;96076.84;;;18.85;56.37
49044;BME280;34860;48.066;14.124;2023-07-02T04:55:36;96074.78;;;18.85;56.52
49044;BME280;34860;48.066;14.124;2023-07-02T04:58:24;96084.53;;;18.84;56.62
49044;BME280;34860;48.066;14.124;2023-07-02T05:01:14;96088.34;;;18.87;56.43
49044;BME280;34860;48.066;14.124;2023-07-02T05:04:09;96088.63;;;18.89;56.62
49044;BME280;34860;48.066;14.124;2023-07-02T05:07:00;96090.91;;;18.91;56.45
49044;BME280;34860;48.066;14.124;2023-07-02T05:09:49;96102.47;;;18.93;56.68
49044;BME280;34860;48.066;14.124;2023-07-02T05:12:41;96101.44;;;18.96;56.51
49044;BME280;34860;48.066;14.124;2023-07-02T05:15:32;96105.03;;;18.96;56.51
49044;BME280;34860;48.066;14.124;2023-07-02T05:18:22;96100.94;;;18.97;56.68
49044;BME280;34860;48.066;14.124;2023-07-02T05:21:17;96107.34;;;18.98;56.67
49044;BME280;34860;48.066;14.124;2023-07-02T05:24:08;96096.56;;;18.96;56.55
49044;BME280;34860;48.066;14.124;2023-07-02T05:26:57;96105.03;;;18.96;56.58
49044;BME280;34860;48.066;14.124;2023-07-02T05:29:46;96092.50;;;18.97;56.60
49044;BME280;34860;48.066;14.124;2023-07-02T05:32:37;96106.06;;;18.99;56.62
49044;BME280;34860;48.066;14.124;2023-07-02T05:35:32;96114.78;;;19.01;56.65
49044;BME280;34860;48.066;14.124;2023-07-02T05:38:23;96113.50;;;19.02;56.86
49044;BME280;34860;48.066;14.124;2023-07-02T05:41:18;96110.44;;;19.05;56.79
49044;BME280;34860;48.066;14.124;2023-07-02T05:44:07;96122.22;;;19.10;56.58
49044;BME280;34860;48.066;14.124;2023-07-02T05:46:56;96116.59;;;19.15;56.62
49044;BME280;34860;48.066;14.124;2023-07-02T05:49:48;96111.50;;;19.19;56.75
49044;BME280;34860;48.066;14.124;2023-07-02T05:52:37;96117.88;;;19.26;56.67
49044;BME280;34860;48.066;14.124;2023-07-02T05:55:28;96102.56;;;19.32;56.66
49044;BME280;34860;48.066;14.124;2023-07-02T05:58:22;96114.84;;;19.40;56.64
49044;BME280;34860;48.066;14.124;2023-07-02T06:01:17;96116.91;;;19.51;56.65
49044;BME280;34860;48.066;14.124;2023-07-02T06:04:07;96113.31;;;19.62;56.62
49044;BME280;34860;48.066;14.124;2023-07-02T06:06:58;96115.91;;;19.71;56.50
49044;BME280;34860;48.066;14.124;2023-07-02T06:09:51;96118.50;;;19.81;56.35
49044;BME280;34860;48.066;14.124;2023-07-02T06:12:47;96110.53;;;19.90;56.28
49044;BME280;34860;48.066;14.124;2023-07-02T06:15:40;96120.53;;;19.97;56.14
49044;BME280;34860;48.066;14.124;2023-07-02T06:18:30;96120.78;;;19.99;56.35
49044;BME280;34860;48.066;14.124;2023-07-02T06:21:19;96125.16;;;20.00;56.25
49044;BME280;34860;48.066;14.124;2023-07-02T06:24:11;96128.72;;;20.01;56.23
49044;BME280;34860;48.066;14.124;2023-07-02T06:27:01;96136.69;;;20.02;56.43
49044;BME280;34860;48.066;14.124;2023-07-02T06:29:56;96145.94;;;20.03;56.27
49044;BME280;34860;48.066;14.124;2023-07-02T06:32:44;96149.25;;;20.01;56.46
49044;BME280;34860;48.066;14.124;2023-07-02T06:35:34;96152.59;;;19.94;56.58
49044;BME280;34860;48.066;14.124;2023-07-02T06:38:23;96165.16;;;19.87;56.55
49044;BME280;34860;48.066;14.124;2023-07-02T06:41:18;96164.34;;;19.75;56.67
49044;BME280;34860;48.066;14.124;2023-07-02T06:44:07;96150.75;;;19.63;56.88
49044;BME280;34860;48.066;14.124;2023-07-02T06:46:57;96138.44;;;19.54;57.19
49044;BME280;34860;48.066;14.124;2023-07-02T06:49:48;96153.28;;;19.49;57.22
49044;BME280;34860;48.066;14.124;2023-07-02T06:52:42;96153.28;;;19.44;57.40
49044;BME280;34860;48.066;14.124;2023-07-02T06:55:31;96172.47;;;19.39;57.28
49044;BME280;34860;48.066;14.124;2023-07-02T06:58:21;96163.25;;;19.33;57.31
49044;BME280;34860;48.066;14.124;2023-07-02T07:01:10;96164.78;;;19.29;57.56
49044;BME280;34860;48.066;14.124;2023-07-02T07:04:00;96167.59;;;19.23;57.68
49044;BME280;34860;48.066;14.124;2023-07-02T07:06:49;96188.81;;;19.18;57.74
49044;BME280;34860;48.066;14.124;2023-07-02T07:09:38;96191.09;;;19.14;57.73
49044;BME280;34860;48.066;14.124;2023-07-02T07:12:28;96193.66;;;19.12;57.89
49044;BME280;34860;48.066;14.124;2023-07-02T07:15:21;96201.31;;;19.06;57.68
49044;BME280;34860;48.066;14.124;2023-07-02T07:18:10;96183.13;;;19.01;57.91
49044;BME280;34860;48.066;14.124;2023-07-02T07:21:05;96179.00;;;18.97;57.98
49044;BME280;34860;48.066;14.124;2023-07-02T07:23:54;96189.50;;;18.96;57.98
49044;BME280;34860;48.066;14.124;2023-07-02T07:26:44;96197.19;;;18.96;57.85
49044;BME280;34860;48.066;14.124;2023-07-02T07:29:41;96191.28;;;18.94;57.71
49044;BME280;34860;48.066;14.124;2023-07-02T07:32:33;96187.69;;;18.93;57.80
49044;BME280;34860;48.066;14.124;2023-07-02T07:35:23;96188.47;;;18.94;57.96
49044;BME280;34860;48.066;14.124;2023-07-02T07:38:21;96197.41;;;18.92;57.81
49044;BME280;34860;48.066;14.124;2023-07-02T07:41:10;96202.53;;;18.94;57.75
49044;BME280;34860;48.066;14.124;2023-07-02T07:43:58;96210.75;;;18.97;57.73
49044;BME280;34860;48.066;14.124;2023-07-02T07:46:48;96220.97;;;18.95;57.58
49044;BME280;34860;48.066;14.124;2023-07-02T07:49:43;96220.97;;;18.95;57.72
49044;BME280;34860;48.066;14.124;2023-07-02T07:52:31;96208.97;;;18.94;57.49
49044;BME280;34860;48.066;14.124;2023-07-02T07:55:24;96210.47;;;18.95;57.68
49044;BME280;34860;48.066;14.124;2023-07-02T07:58:15;96222.25;;;18.94;57.64
49044;BME280;34860;48.066;14.124;2023-07-02T08:01:08;96225.06;;;18.94;57.56
49044;BME280;34860;48.066;14.124;2023-07-02T08:04:05;96216.88;;;18.90;57.60
49044;BME280;34860;48.066;14.124;2023-07-02T08:06:54;96220.97;;;18.89;57.50
49044;BME280;34860;48.066;14.124;2023-07-02T08:09:47;96220.19;;;18.88;57.74
49044;BME280;34860;48.066;14.124;2023-07-02T08:12:39;96214.53;;;18.88;57.48
49044;BME280;34860;48.066;14.124;2023-07-02T08:15:37;96219.69;;;18.90;57.46
49044;BME280;34860;48.066;14.124;2023-07-02T08:18:25;96225.56;;;18.92;57.43
49044;BME280;34860;48.066;14.124;2023-07-02T08:21:18;96221.75;;;18.95;57.51
49044;BME280;34860;48.066;14.124;2023-07-02T08:24:07;96215.59;;;18.97;57.38
49044;BME280;34860;48.066;14.124;2023-07-02T08:26:58;96215.91;;;18.99;57.50
49044;BME280;34860;48.066;14.124;2023-07-02T08:29:50;96217.19;;;19.03;57.47
49044;BME280;34860;48.066;14.124;2023-07-02T08:32:38;96228.22;;;19.07;57.30
49044;BME280;34860;48.066;14.124;2023-07-02T08:35:32;96214.38;;;19.09;57.35
49044;BME280;34860;48.066;14.124;2023-07-02T08:38:24;96231.31;;;19.15;57.24
49044;BME280;34860;48.066;14.124;2023-07-02T08:41:15;96219.78;;;19.13;57.40
49044;BME280;34860;48.066;14.124;2023-07-02T08:44:08;96221.59;;;19.16;57.23
49044;BME280;34860;48.066;14.124;2023-07-02T08:46:59;96224.91;;;19.14;57.41
49044;BME280;34860;48.066;14.124;2023-07-02T08:49:50;96227.22;;;19.16;57.42
49044;BME280;34860;48.066;14.124;2023-07-02T08:52:43;96228.25;;;19.18;57.25
49044;BME280;34860;48.066;14.124;2023-07-02T08:55:38;96232.88;;;19.21;57.14
49044;BME280;34860;48.066;14.124;2023-07-02T08:58:27;96243.16;;;19.24;57.20
49044;BME280;34860;48.066;14.124;2023-07-02T09:01:17;96233.94;;;19.30;57.10
49044;BME280;34860;48.066;14.124;2023-07-02T09:04:15;96224.47;;;19.33;57.17
49044;BME280;34860;48.066;14.124;2023-07-02T09:07:08;96237.03;;;19.37;56.99
49044;BME280;34860;48.066;14.124;2023-07-02T09:10:00;96241.91;;;19.42;56.75
49044;BME280;34860;48.066;14.124;2023-07-02T09:12:51;96246.28;;;19.44;56.73
49044;BME280;34860;48.066;14.124;2023-07-02T09:15:50;96243.97;;;19.48;56.72
49044;BME280;34860;48.066;14.124;2023-07-02T09:18:40;96249.13;;;19.49;56.58
49044;BME280;34860;48.066;14.124;2023-07-02T09:21:42;96245.28;;;19.52;56.53
49044;BME280;34860;48.066;14.124;2023-07-02T09:24:37;96253.22;;;19.54;56.52
49044;BME280;34860;48.066;14.124;2023-07-02T09:27:33;96253.47;;;19.56;56.50
49044;BME280;34860;48.066;14.124;2023-07-02T09:30:26;96252.47;;;19.59;56.29
49044;BME280;34860;48.066;14.124;2023-07-02T09:33:17;96249.66;;;19.59;56.46
49044;BME280;34860;48.066;14.124;2023-07-02T09:36:11;96251.44;;;19.62;56.32
49044;BME280;34860;48.066;14.124;2023-07-02T09:39:04;96258.13;;;19.65;56.19
49044;BME280;34860;48.066;14.124;2023-07-02T09:41:54;96259.69;;;19.66;56.04
49044;BME280;34860;48.066;14.124;2023-07-02T09:44:47;96264.03;;;19.67;55.98
49044;BME280;34860;48.066;14.124;2023-07-02T09:47:41;96266.59;;;19.65;55.99
49044;BME280;34860;48.066;14.124;2023-07-02T09:50:34;96269.41;;;19.65;56.02
49044;BME280;34860;48.066;14.124;2023-07-02T09:53:27;96267.09;;;19.63;56.03
49044;BME280;34860;48.066;14.124;2023-07-02T09:56:23;96267.88;;;19.64;55.89
49044;BME280;34860;48.066;14.124;2023-07-02T09:59:17;96277.09;;;19.64;55.92
49044;BME280;34860;48.066;14.124;2023-07-02T10:02:09;96276.59;;;19.66;55.81
49044;BME280;34860;48.066;14.124;2023-07-02T10:04:59;96274.03;;;19.68;55.99
49044;BME280;34860;48.066;14.124;2023-07-02T10:07:50;96284.31;;;19.71;56.00
49044;BME280;34860;48.066;14.124;2023-07-02T10:10:43;96290.94;;;19.73;55.79
49044;BME280;34860;48.066;14.124;2023-07-02T10:13:37;96289.69;;;19.74;55.81
49044;BME280;34860;48.066;14.124;2023-07-02T10:16:31;96281.50;;;19.76;55.80
49044;BME280;34860;48.066;14.124;2023-07-02T10:19:20;96289.47;;;19.78;55.65
49044;BME280;34860;48.066;14.124;2023-07-02T10:22:09;96293.84;;;19.79;55.80
49044;BME280;34860;48.066;14.124;2023-07-02T10:24:59;96287.69;;;19.81;55.53
49044;BME280;34860;48.066;14.124;2023-07-02T10:27:49;96301.28;;;19.82;55.47
49044;BME280;34860;48.066;14.124;2023-07-02T10:30:39;96299.72;;;19.81;55.42
49044;BME280;34860;48.066;14.124;2023-07-02T10:33:29;96311.25;;;19.77;55.39
49044;BME280;34860;48.066;14.124;2023-07-02T10:36:19;96315.81;;;19.75;55.42
49044;BME280;34860;48.066;14.124;2023-07-02T10:39:10;96321.19;;;19.67;55.41
49044;BME280;34860;48.066;14.124;2023-07-02T10:42:06;96318.59;;;19.58;55.49
49044;BME280;34860;48.066;14.124;2023-07-02T10:44:55;96318.81;;;19.49;55.52
49044;BME280;34860;48.066;14.124;2023-07-02T10:47:46;96325.91;;;19.38;55.71
49044;BME280;34860;48.066;14.124;2023-07-02T10:50:38;96318.72;;;19.26;55.90
49044;BME280;34860;48.066;14.124;2023-07-02T10:53:30;96327.88;;;19.15;55.98
49044;BME280;34860;48.066;14.124;2023-07-02T10:56:24;96335.25;;;19.07;55.91
49044;BME280;34860;48.066;14.124;2023-07-02T10:59:23;96315.22;;;18.99;56.09
49044;BME280;34860;48.066;14.124;2023-07-02T11:02:15;96325.44;;;18.97;56.05
49044;BME280;34860;48.066;14.124;2023-07-02T11:05:06;96309.84;;;18.96;56.36
49044;BME280;34860;48.066;14.124;2023-07-02T11:08:08;96316.72;;;18.95;56.26
49044;BME280;34860;48.066;14.124;2023-07-02T11:11:06;96311.09;;;18.95;56.13
49044;BME280;34860;48.066;14.124;2023-07-02T11:13:55;96321.09;;;18.96;56.17
49044;BME280;34860;48.066;14.124;2023-07-02T11:16:44;96327.53;;;19.02;56.12
49044;BME280;34860;48.066;14.124;2023-07-02T11:19:38;96318.59;;;19.03;55.85
49044;BME280;34860;48.066;14.124;2023-07-02T11:22:32;96312.97;;;19.09;56.09
49044;BME280;34860;48.066;14.124;2023-07-02T11:25:23;96320.69;;;19.14;55.91
49044;BME280;34860;48.066;14.124;2023-07-02T11:28:11;96329.44;;;19.22;56.01
49044;BME280;34860;48.066;14.124;2023-07-02T11:31:04;96329.19;;;19.26;55.98
49044;BME280;34860;48.066;14.124;2023-07-02T11:33:56;96326.91;;;19.30;56.01
49044;BME280;34860;48.066;14.124;2023-07-02T11:36:46;96327.47;;;19.34;55.93
49044;BME280;34860;48.066;14.124;2023-07-02T11:39:43;96335.94;;;19.39;55.93
49044;BME280;34860;48.066;14.124;2023-07-02T11:42:36;96335.16;;;19.39;56.08
49044;BME280;34860;48.066;14.124;2023-07-02T11:45:27;96327.47;;;19.39;56.04
49044;BME280;34860;48.066;14.124;2023-07-02T11:48:17;96329.28;;;19.42;55.85
49044;BME280;34860;48.066;14.124;2023-07-02T11:51:05;96324.69;;;19.45;56.04
49044;BME280;34860;48.066;14.124;2023-07-02T11:53:54;96324.44;;;19.49;56.17
49044;BME280;34860;48.066;14.124;2023-07-02T11:56:46;96333.69;;;19.55;56.09
49044;BME280;34860;48.066;14.124;2023-07-02T11:59:38;96327.31;;;19.60;56.06
49044;BME280;34860;48.066;14.124;2023-07-02T12:02:33;96316.06;;;19.66;56.04
49044;BME280;34860;48.066;14.124;2023-07-02T12:05:21;96322.22;;;19.70;56.01
49044;BME280;34860;48.066;14.124;2023-07-02T12:08:14;96325.88;;;19.76;56.08
49044;BME280;34860;48.066;14.124;2023-07-02T12:11:06;96322.78;;;19.80;56.00
49044;BME280;34860;48.066;14.124;2023-07-02T12:13:57;96329.72;;;19.84;55.87
49044;BME280;34860;48.066;14.124;2023-07-02T12:16:49;96331.03;;;19.89;56.04
49044;BME280;34860;48.066;14.124;2023-07-02T12:19:43;96324.63;;;19.94;55.81
49044;BME280;34860;48.066;14.124;2023-07-02T12:22:35;96323.09;;;19.99;55.70
49044;BME280;34860;48.066;14.124;2023-07-02T12:25:26;96320.03;;;20.02;55.65
49044;BME280;34860;48.066;14.124;2023-07-02T12:28:18;96324.94;;;20.07;55.75
49044;BME280;34860;48.066;14.124;2023-07-02T12:31:13;96319.78;;;20.11;55.74
49044;BME280;34860;48.066;14.124;2023-07-02T12:34:02;96318.50;;;20.18;55.73
49044;BME280;34860;48.066;14.124;2023-07-02T12:36:53;96323.66;;;20.25;55.78
49044;BME280;34860;48.066;14.124;2023-07-02T12:39:42;96325.22;;;20.32;55.54
49044;BME280;34860;48.066;14.124;2023-07-02T12:42:30;96322.66;;;20.40;55.44
49044;BME280;34860;48.066;14.124;2023-07-02T12:45:23;96328.84;;;20.44;55.48
49044;BME280;34860;48.066;14.124;2023-07-02T12:48:13;96307.50;;;20.48;55.17
49044;BME280;34860;48.066;14.124;2023-07-02T12:51:03;96320.59;;;20.51;55.44
49044;BME280;34860;48.066;14.124;2023-07-02T12:53:54;96307.78;;;20.56;55.30
49044;BME280;34860;48.066;14.124;2023-07-02T12:56:43;96314.19;;;20.62;55.44
49044;BME280;34860;48.066;14.124;2023-07-02T13:02:29;96317.56;;;20.78;55.16
49044;BME280;34860;48.066;14.124;2023-07-02T13:05:22;96299.84;;;20.83;55.08
49044;BME280;34860;48.066;14.124;2023-07-02T13:08:11;96301.13;;;20.88;54.95
49044;BME280;34860;48.066;14.124;2023-07-02T13:11:03;96299.84;;;20.89;54.94
49044;BME280;34860;48.066;14.124;2023-07-02T13:13:55;96297.53;;;20.87;54.86
49044;BME280;34860;48.066;14.124;2023-07-02T13:16:44;96291.38;;;20.89;55.04
49044;BME280;34860;48.066;14.124;2023-07-02T13:19:33;96285.94;;;20.96;55.02
49044;BME280;34860;48.066;14.124;2023-07-02T13:22:33;96281.00;;;21.14;54.81
49044;BME280;34860;48.066;14.124;2023-07-02T13:25:21;96286.84;;;21.38;54.78
49044;BME280;34860;48.066;14.124;2023-07-02T13:28:12;96296.75;;;21.73;54.65
49044;BME280;34860;48.066;14.124;2023-07-02T13:31:05;96284.97;;;22.11;54.19
49044;BME280;34860;48.066;14.124;2023-07-02T13:33:57;96282.41;;;22.49;54.01
49044;BME280;34860;48.066;14.124;2023-07-02T13:36:49;96286.69;;;22.86;53.53
49044;BME280;34860;48.066;14.124;2023-07-02T13:39:42;96278.13;;;23.22;53.26
49044;BME280;34860;48.066;14.124;2023-07-02T13:42:35;96278.03;;;23.52;52.91
49044;BME280;34860;48.066;14.124;2023-07-02T13:45:26;96281.66;;;23.72;52.73
49044;BME280;34860;48.066;14.124;2023-07-02T13:48:15;96278.97;;;23.80;52.55
49044;BME280;34860;48.066;14.124;2023-07-02T13:51:03;96285.41;;;23.80;52.60
49044;BME280;34860;48.066;14.124;2023-07-02T13:53:53;96275.84;;;23.83;52.67
49044;BME280;34860;48.066;14.124;2023-07-02T13:56:44;96271.34;;;23.93;52.59
49044;BME280;34860;48.066;14.124;2023-07-02T13:59:39;96268.34;;;24.05;52.63
49044;BME280;34860;48.066;14.124;2023-07-02T14:02:28;96276.00;;;24.10;52.53
49044;BME280;34860;48.066;14.124;2023-07-02T14:05:18;96270.53;;;24.12;52.47
49044;BME280;34860;48.066;14.124;2023-07-02T14:08:09;96268.22;;;24.10;52.45
49044;BME280;34860;48.066;14.124;2023-07-02T14:10:57;96271.16;;;24.05;52.01
49044;BME280;34860;48.066;14.124;2023-07-02T14:13:47;96264.25;;;24.00;52.39
49044;BME280;34860;48.066;14.124;2023-07-02T14:16:39;96255.97;;;24.02;52.37
49044;BME280;34860;48.066;14.124;2023-07-02T14:19:32;96275.91;;;24.16;52.13
49044;BME280;34860;48.066;14.124;2023-07-02T14:22:21;96258.19;;;24.28;51.94
49044;BME280;34860;48.066;14.124;2023-07-02T14:25:13;96258.44;;;24.44;51.85
49044;BME280;34860;48.066;14.124;2023-07-02T14:28:05;96260.91;;;24.66;51.98
49044;BME280;34860;48.066;14.124;2023-07-02T14:31:00;96252.44;;;24.93;51.48
49044;BME280;34860;48.066;14.124;2023-07-02T14:33:51;96253.13;;;25.26;51.27
49044;BME280;34860;48.066;14.124;2023-07-02T14:36:42;96246.56;;;25.58;50.97
49044;BME280;34860;48.066;14.124;2023-07-02T14:39:30;96256.00;;;25.87;50.84
49044;BME280;34860;48.066;14.124;2023-07-02T14:42:21;96255.75;;;26.12;50.33
49044;BME280;34860;48.066;14.124;2023-07-02T14:45:10;96251.03;;;26.36;50.54
49044;BME280;34860;48.066;14.124;2023-07-02T14:47:59;96249.94;;;26.60;50.12
49044;BME280;34860;48.066;14.124;2023-07-02T14:50:53;96240.69;;;26.88;49.67
49044;BME280;34860;48.066;14.124;2023-07-02T14:53:46;96250.38;;;27.14;49.67
49044;BME280;34860;48.066;14.124;2023-07-02T14:56:34;96252.78;;;27.31;49.70
49044;BME280;34860;48.066;14.124;2023-07-02T14:59:31;96250.59;;;27.45;49.09